createdAt,value
2019-04-16T00:01:28.208Z,19.90
2019-04-16T00:04:01.327Z,14.17
2019-04-16T00:06:35.608Z,18.80
2019-04-16T00:09:08.763Z,14.03
2019-04-16T00:11:43.427Z,19.40
2019-04-16T00:14:17.504Z,20.00
2019-04-16T00:16:46.366Z,16.70
2019-04-16T00:19:15.237Z,17.53
2019-04-16T00:21:49.477Z,18.00
2019-04-16T00:24:23.144Z,15.47
2019-04-16T00:26:57.808Z,16.13
2019-04-16T00:29:22.597Z,18.40
2019-04-16T00:31:54.746Z,16.20
2019-04-16T00:34:23.589Z,19.70
2019-04-16T00:36:52.706Z,16.77
2019-04-16T00:39:24.525Z,20.10
2019-04-16T00:41:50.383Z,14.57
2019-04-16T00:44:20.133Z,17.50
2019-04-16T00:46:50.128Z,14.63
2019-04-16T00:49:18.975Z,19.53
2019-04-16T00:51:47.885Z,25.87
2019-04-16T00:54:16.770Z,14.73
2019-04-16T00:56:46.801Z,16.57
2019-04-16T00:59:14.434Z,14.77
2019-04-16T01:01:43.322Z,16.80
2019-04-16T01:04:12.127Z,20.20
2019-04-16T01:06:41.460Z,17.43
2019-04-16T01:09:10.736Z,17.60
2019-04-16T01:11:39.537Z,15.97
2019-04-16T01:14:08.351Z,19.53
2019-04-16T01:16:37.170Z,14.73
2019-04-16T01:19:09.489Z,17.10
2019-04-16T01:21:35.562Z,17.53
2019-04-16T01:24:05.010Z,19.60
2019-04-16T01:26:34.519Z,15.50
2019-04-16T01:29:07.534Z,17.13
2019-04-16T01:31:48.552Z,16.27
2019-04-16T01:34:22.368Z,17.93
2019-04-16T01:36:59.140Z,16.60
2019-04-16T01:39:29.683Z,19.17
2019-04-16T01:41:58.456Z,19.30
2019-04-16T01:44:29.430Z,15.60
2019-04-16T01:46:58.081Z,18.13
2019-04-16T01:49:26.966Z,16.13
2019-04-16T01:51:55.907Z,16.00
2019-04-16T01:54:25.151Z,18.70
2019-04-16T01:56:53.987Z,17.33
2019-04-16T01:59:22.886Z,17.73
2019-04-16T02:01:52.615Z,18.67
2019-04-16T02:04:22.371Z,15.27
2019-04-16T02:06:51.199Z,15.20
2019-04-16T02:09:22.712Z,17.53
2019-04-16T02:11:48.911Z,16.27
2019-04-16T02:14:21.937Z,16.47
2019-04-16T02:16:46.914Z,18.10
2019-04-16T02:19:15.822Z,14.87
2019-04-16T02:21:45.434Z,20.17
2019-04-16T02:24:18.565Z,21.73
2019-04-16T02:26:43.839Z,18.53
2019-04-16T02:29:12.650Z,18.50
2019-04-16T02:31:41.502Z,18.30
2019-04-16T02:34:10.376Z,24.77
2019-04-16T02:36:39.162Z,21.37
2019-04-16T02:39:08.299Z,17.70
2019-04-16T02:41:37.192Z,20.67
2019-04-16T02:44:06.053Z,20.47
2019-04-16T02:46:34.898Z,18.23
2019-04-16T02:49:05.488Z,18.33
2019-04-16T02:51:41.184Z,19.80
2019-04-16T02:54:17.633Z,19.47
2019-04-16T02:56:53.986Z,24.03
2019-04-16T02:59:27.076Z,21.57
2019-04-16T03:02:59.075Z,19.40
2019-04-16T03:05:31.216Z,17.07
2019-04-16T03:08:01.413Z,32.47
2019-04-16T03:10:29.980Z,21.73
2019-04-16T03:12:59.415Z,21.00
2019-04-16T03:15:34.245Z,19.67
2019-04-16T03:18:03.112Z,23.57
2019-04-16T03:20:31.899Z,29.27
2019-04-16T03:23:05.157Z,17.37
2019-04-16T03:25:31.295Z,17.07
2019-04-16T03:28:00.121Z,16.63
2019-04-16T03:30:29.828Z,20.93
2019-04-16T03:32:59.380Z,19.37
2019-04-16T03:35:28.189Z,21.77
2019-04-16T03:37:57.687Z,28.23
2019-04-16T03:40:26.519Z,18.30
2019-04-16T03:42:59.031Z,18.47
2019-04-16T03:45:24.395Z,20.83
2019-04-16T03:47:53.190Z,22.83
2019-04-16T03:50:22.044Z,19.83
2019-04-16T03:52:50.826Z,21.33
2019-04-16T03:55:25.024Z,23.13
2019-04-16T03:57:49.811Z,22.30
2019-04-16T04:00:18.825Z,18.17
2019-04-16T04:02:47.636Z,19.37
2019-04-16T04:05:16.579Z,20.10
2019-04-16T04:07:45.397Z,22.07
2019-04-16T04:10:29.044Z,20.50
2019-04-16T04:12:45.875Z,31.10
2019-04-16T04:15:13.187Z,21.17
2019-04-16T04:17:44.692Z,21.00
2019-04-16T04:20:14.606Z,19.90
2019-04-16T04:22:42.558Z,19.57
2019-04-16T04:25:11.900Z,18.87
2019-04-16T04:27:43.586Z,19.80
2019-04-16T04:30:10.102Z,19.57
2019-04-16T04:32:39.632Z,18.53
2019-04-16T04:35:08.449Z,21.27
2019-04-16T04:37:37.318Z,25.10
2019-04-16T04:40:07.759Z,23.67
2019-04-16T04:42:36.410Z,19.70
2019-04-16T04:45:08.415Z,18.03
2019-04-16T04:47:34.267Z,23.93
2019-04-16T04:50:04.892Z,18.63
2019-04-16T04:52:33.680Z,20.57
2019-04-16T04:55:02.539Z,21.00
2019-04-16T04:57:32.011Z,23.17
2019-04-16T05:00:00.627Z,20.23
2019-04-16T05:02:29.448Z,17.63
2019-04-16T05:05:10.454Z,19.23
2019-04-16T05:07:40.590Z,19.73
2019-04-16T05:10:09.405Z,17.80
2019-04-16T05:12:38.251Z,17.13
2019-04-16T05:15:07.175Z,31.17
2019-04-16T05:17:38.414Z,17.97
2019-04-16T05:20:06.735Z,19.10
2019-04-16T05:22:36.308Z,21.00
2019-04-16T05:25:05.248Z,20.43
2019-04-16T05:27:34.083Z,28.80
2019-04-16T05:30:04.555Z,27.90
2019-04-16T05:32:34.290Z,19.60
2019-04-16T05:35:02.912Z,17.50
2019-04-16T05:37:33.173Z,18.73
2019-04-16T05:40:04.992Z,18.43
2019-04-16T05:42:34.891Z,18.17
2019-04-16T05:45:05.476Z,16.93
2019-04-16T05:47:32.888Z,22.47
2019-04-16T05:50:01.724Z,16.27
2019-04-16T05:52:35.721Z,18.03
2019-04-16T05:55:07.736Z,25.30
2019-04-16T05:57:38.817Z,17.60
2019-04-16T06:00:10.221Z,17.03
2019-04-16T06:02:40.164Z,17.10
2019-04-16T06:05:08.965Z,16.80
2019-04-16T06:07:39.012Z,15.97
2019-04-16T06:10:09.108Z,17.83
2019-04-16T06:12:45.631Z,17.13
2019-04-16T06:15:21.462Z,16.70
2019-04-16T06:17:51.622Z,17.40
2019-04-16T06:20:25.949Z,17.07
2019-04-16T06:23:05.726Z,16.60
2019-04-16T06:25:41.295Z,18.27
2019-04-16T06:28:13.512Z,16.60
2019-04-16T06:30:48.395Z,18.10
2019-04-16T06:33:21.059Z,23.97
2019-04-16T06:37:05.190Z,18.33
2019-04-16T06:39:52.342Z,22.93
2019-04-16T06:42:28.662Z,19.47
2019-04-16T06:45:01.614Z,19.53
2019-04-16T06:47:42.039Z,18.47
2019-04-16T06:50:29.580Z,17.57
2019-04-16T06:52:50.483Z,17.30
2019-04-16T06:56:24.431Z,18.07
2019-04-16T06:58:59.520Z,17.47
2019-04-16T07:01:48.645Z,15.70
2019-04-16T07:04:30.487Z,16.57
2019-04-16T07:07:01.703Z,15.47
2019-04-16T07:09:41.817Z,18.00
2019-04-16T07:12:09.352Z,14.43
2019-04-16T07:14:38.135Z,18.97
2019-04-16T07:17:06.978Z,15.33
2019-04-16T07:19:35.734Z,13.57
2019-04-16T07:22:05.224Z,17.53
2019-04-16T07:24:36.608Z,15.10
2019-04-16T07:27:04.411Z,16.20
2019-04-16T07:29:45.886Z,20.40
2019-04-16T07:32:17.362Z,14.77
2019-04-16T07:35:49.093Z,16.73
2019-04-16T07:38:25.453Z,15.47
2019-04-16T07:40:59.556Z,12.67
2019-04-16T07:43:34.155Z,23.17
2019-04-16T07:46:08.171Z,20.37
2019-04-16T07:48:41.780Z,22.20
2019-04-16T07:51:21.991Z,18.90
2019-04-16T07:54:03.163Z,20.07
2019-04-16T07:56:32.021Z,13.73
2019-04-16T07:59:01.793Z,17.00
2019-04-16T08:01:31.134Z,15.63
2019-04-16T08:04:01.037Z,18.83
2019-04-16T08:06:29.357Z,17.60
2019-04-16T08:08:59.522Z,17.10
2019-04-16T08:11:29.006Z,19.93
2019-04-16T08:13:57.815Z,17.80
2019-04-16T08:16:26.623Z,18.80
2019-04-16T08:18:55.423Z,16.20
2019-04-16T08:21:24.263Z,17.50
2019-04-16T08:23:58.312Z,16.40
2019-04-16T08:26:27.111Z,20.03
2019-04-16T08:28:55.908Z,15.60
2019-04-16T08:31:26.820Z,15.27
2019-04-16T08:33:55.746Z,17.03
2019-04-16T08:36:26.067Z,18.50
2019-04-16T08:38:55.431Z,17.07
2019-04-16T08:41:24.040Z,20.40
2019-04-16T08:43:52.841Z,15.33
2019-04-16T08:46:22.664Z,18.07
2019-04-16T08:48:54.341Z,16.97
2019-04-16T08:51:30.313Z,16.97
2019-04-16T08:53:50.271Z,19.87
2019-04-16T08:56:19.088Z,20.57
2019-04-16T08:58:47.964Z,29.13
2019-04-16T09:01:18.706Z,26.10
2019-04-16T09:03:46.923Z,21.37
2019-04-16T09:06:16.291Z,23.97
2019-04-16T09:08:53.833Z,18.07
2019-04-16T09:11:23.925Z,15.43
2019-04-16T09:13:55.807Z,15.63
2019-04-16T09:16:26.684Z,19.23
2019-04-16T09:19:03.215Z,14.30
2019-04-16T09:21:32.027Z,24.40
2019-04-16T09:24:08.923Z,18.30
2019-04-16T09:26:43.659Z,21.47
2019-04-16T09:29:18.462Z,16.23
2019-04-16T09:31:55.446Z,17.93
2019-04-16T09:34:26.990Z,16.63
2019-04-16T09:37:38.646Z,20.93
2019-04-16T09:40:40.177Z,19.10
2019-04-16T09:43:17.633Z,20.77
2019-04-16T09:45:40.544Z,16.57
2019-04-16T09:48:09.350Z,23.83
2019-04-16T09:50:43.125Z,23.77
2019-04-16T09:53:07.633Z,23.20
2019-04-16T09:55:37.051Z,16.47
2019-04-16T09:58:11.119Z,22.17
2019-04-16T10:00:39.958Z,16.23
2019-04-16T10:03:14.173Z,19.77
2019-04-16T10:05:42.963Z,17.53
2019-04-16T10:08:12.637Z,19.57
2019-04-16T10:10:41.449Z,20.43
2019-04-16T10:13:11.412Z,17.97
2019-04-16T10:15:40.867Z,20.40
2019-04-16T10:18:09.677Z,23.63
2019-04-16T10:20:41.708Z,19.00
2019-04-16T10:23:14.795Z,25.60
2019-04-16T10:25:43.620Z,23.07
2019-04-16T10:28:17.116Z,30.40
2019-04-16T10:30:49.966Z,20.13
2019-04-16T10:33:19.318Z,19.23
2019-04-16T10:35:48.642Z,20.23
2019-04-16T10:38:29.659Z,22.97
2019-04-16T10:41:03.468Z,24.33
2019-04-16T10:43:44.395Z,23.77
2019-04-16T10:46:11.383Z,26.07
2019-04-16T10:48:44.372Z,22.83
2019-04-16T10:51:18.153Z,21.67
2019-04-16T10:53:52.937Z,25.47
2019-04-16T10:56:27.224Z,21.67
2019-04-16T10:59:33.965Z,25.33
2019-04-16T11:02:10.713Z,21.70
2019-04-16T11:04:57.393Z,25.73
2019-04-16T11:07:28.408Z,20.67
2019-04-16T11:09:58.331Z,21.90
2019-04-16T11:12:28.358Z,21.47
2019-04-16T11:14:57.132Z,24.67
2019-04-16T11:17:27.551Z,22.43
2019-04-16T11:19:59.862Z,28.57
2019-04-16T11:22:25.255Z,25.43
2019-04-16T11:24:54.959Z,24.07
2019-04-16T11:27:23.758Z,24.33
2019-04-16T11:29:52.551Z,26.00
2019-04-16T11:32:22.984Z,19.30
2019-04-16T11:34:51.950Z,23.77
2019-04-16T11:37:24.134Z,23.33
2019-04-16T11:39:52.957Z,21.70
2019-04-16T11:42:21.839Z,24.07
2019-04-16T11:44:52.822Z,21.90
2019-04-16T11:47:21.704Z,27.87
2019-04-16T11:49:50.580Z,26.30
2019-04-16T11:52:19.417Z,31.17
2019-04-16T11:54:49.186Z,23.77
2019-04-16T11:57:18.676Z,21.60
2019-04-16T11:59:47.519Z,29.10
2019-04-16T12:02:22.451Z,29.63
2019-04-16T12:05:13.600Z,32.13
2019-04-16T12:07:47.570Z,29.00
2019-04-16T12:10:21.776Z,27.30
2019-04-16T12:13:53.724Z,25.60
2019-04-16T12:16:34.845Z,24.20
2019-04-16T12:20:08.874Z,24.77
2019-04-16T12:22:41.853Z,23.13
2019-04-16T12:25:20.925Z,26.83
2019-04-16T12:28:12.518Z,23.13
2019-04-16T12:30:44.328Z,27.90
2019-04-16T12:33:23.314Z,26.23
2019-04-16T12:35:59.787Z,31.07
2019-04-16T12:39:06.240Z,26.40
2019-04-16T12:41:41.170Z,27.43
2019-04-16T12:44:15.380Z,24.40
2019-04-16T12:47:05.688Z,28.07
2019-04-16T12:49:44.389Z,30.57
2019-04-16T12:52:22.365Z,24.77
2019-04-16T12:54:59.323Z,31.00
2019-04-16T12:57:32.599Z,33.37
2019-04-16T13:00:11.714Z,23.17
2019-04-16T13:02:49.450Z,25.53
2019-04-16T13:05:22.458Z,23.30
2019-04-16T13:08:00.624Z,27.50
2019-04-16T13:10:37.316Z,25.53
2019-04-16T13:13:11.609Z,24.43
2019-04-16T13:15:48.575Z,27.20
2019-04-16T13:18:27.743Z,28.43
2019-04-16T13:21:05.562Z,27.13
2019-04-16T13:23:37.057Z,30.77
2019-04-16T13:26:13.414Z,22.60
2019-04-16T13:28:41.046Z,34.10
2019-04-16T13:31:09.944Z,28.50
2019-04-16T13:33:40.041Z,27.50
2019-04-16T13:36:08.880Z,29.57
2019-04-16T13:38:41.073Z,27.17
2019-04-16T13:41:09.597Z,26.53
2019-04-16T13:43:43.930Z,32.13
2019-04-16T13:46:12.806Z,26.80
2019-04-16T13:48:47.662Z,23.57
2019-04-16T13:51:19.153Z,29.03
2019-04-16T13:53:54.502Z,29.20
2019-04-16T13:56:32.906Z,38.87
2019-04-16T13:59:15.991Z,25.87
2019-04-16T14:01:54.833Z,32.23
2019-04-16T14:04:23.723Z,30.33
2019-04-16T14:06:52.628Z,33.93
2019-04-16T14:09:22.470Z,31.03
2019-04-16T14:11:52.064Z,28.23
2019-04-16T14:14:22.686Z,25.90
2019-04-16T14:16:50.072Z,35.90
2019-04-16T14:19:19.136Z,28.83
2019-04-16T14:21:48.032Z,35.17
2019-04-16T14:24:17.422Z,33.37
2019-04-16T14:26:46.548Z,26.00
2019-04-16T14:29:15.362Z,27.37
2019-04-16T14:31:46.189Z,28.80
2019-04-16T14:34:24.990Z,26.13
2019-04-16T14:36:56.976Z,27.43
2019-04-16T14:39:29.404Z,39.13
2019-04-16T14:41:59.182Z,33.97
2019-04-16T14:44:31.620Z,29.53
2019-04-16T14:47:00.569Z,31.10
2019-04-16T14:49:27.231Z,32.10
2019-04-16T14:51:58.120Z,27.17
2019-04-16T14:54:33.951Z,31.57
2019-04-16T14:57:02.751Z,30.40
2019-04-16T15:00:35.655Z,31.53
2019-04-16T15:03:10.068Z,33.57
2019-04-16T15:05:44.730Z,34.63
2019-04-16T15:08:17.171Z,29.33
2019-04-16T15:10:51.315Z,28.70
2019-04-16T15:13:25.306Z,36.47
2019-04-16T15:16:11.001Z,29.23
2019-04-16T15:18:44.244Z,32.17
2019-04-16T15:21:18.408Z,29.70
2019-04-16T15:24:21.708Z,34.87
2019-04-16T15:28:59.513Z,37.13
2019-04-16T15:31:33.772Z,30.00
2019-04-16T15:34:10.079Z,39.47
2019-04-16T15:36:39.664Z,33.13
2019-04-16T15:39:11.409Z,34.87
2019-04-16T15:42:20.941Z,33.43
2019-04-16T15:44:56.138Z,29.17
2019-04-16T15:47:32.970Z,31.70
2019-04-16T15:50:07.866Z,34.90
2019-04-16T15:52:41.698Z,34.47
2019-04-16T15:55:14.761Z,35.30
2019-04-16T15:57:48.672Z,29.10
2019-04-16T16:00:22.654Z,29.97
2019-04-16T16:02:55.716Z,31.20
2019-04-16T16:05:29.732Z,29.40
2019-04-16T16:08:03.093Z,31.83
2019-04-16T16:10:36.735Z,32.97
2019-04-16T16:13:05.906Z,41.23
2019-04-16T16:15:40.205Z,35.77
2019-04-16T16:18:03.970Z,28.37
2019-04-16T16:20:33.262Z,32.47
2019-04-16T16:23:02.239Z,31.23
2019-04-16T16:25:31.187Z,37.47
2019-04-16T16:28:00.104Z,33.47
2019-04-16T16:30:30.593Z,28.83
2019-04-16T16:32:59.439Z,31.80
2019-04-16T16:35:28.271Z,27.23
2019-04-16T16:37:58.698Z,29.10
2019-04-16T16:40:28.490Z,38.27
2019-04-16T16:42:58.324Z,29.87
2019-04-16T16:45:31.247Z,31.83
2019-04-16T16:48:00.100Z,36.10
2019-04-16T16:50:28.989Z,32.53
2019-04-16T16:53:02.903Z,31.53
2019-04-16T16:55:37.385Z,37.17
2019-04-16T16:58:44.000Z,27.97
2019-04-16T17:01:16.995Z,28.53
2019-04-16T17:03:52.580Z,33.73
2019-04-16T17:06:20.161Z,32.80
2019-04-16T17:08:49.007Z,33.83
2019-04-16T17:11:17.835Z,49.60
2019-04-16T17:13:46.874Z,29.43
2019-04-16T17:16:16.571Z,35.80
2019-04-16T17:18:45.727Z,31.23
2019-04-16T17:21:17.759Z,38.33
2019-04-16T17:23:46.571Z,32.23
2019-04-16T17:26:16.755Z,32.77
2019-04-16T17:28:45.566Z,35.90
2019-04-16T17:31:14.749Z,28.03
2019-04-16T17:33:43.566Z,31.37
2019-04-16T17:36:12.427Z,30.07
2019-04-16T17:38:41.215Z,30.07
2019-04-16T17:41:12.352Z,31.80
2019-04-16T17:43:59.754Z,33.97
2019-04-16T17:46:26.353Z,32.87
2019-04-16T17:49:09.228Z,30.03
2019-04-16T17:51:43.066Z,29.03
2019-04-16T17:54:16.059Z,30.47
2019-04-16T17:56:51.953Z,32.03
2019-04-16T17:59:21.952Z,34.33
2019-04-16T18:01:55.996Z,34.03
2019-04-16T18:04:30.213Z,29.90
2019-04-16T18:09:07.837Z,30.03
2019-04-16T18:11:46.260Z,34.17
2019-04-16T18:14:19.239Z,30.57
2019-04-16T18:16:54.336Z,32.73
2019-04-16T18:19:26.248Z,32.10
2019-04-16T18:22:04.960Z,27.43
2019-04-16T18:24:34.607Z,33.53
2019-04-16T18:27:08.942Z,41.57
2019-04-16T18:29:45.129Z,31.73
2019-04-16T18:32:21.116Z,38.53
2019-04-16T18:34:56.423Z,32.30
2019-04-16T18:37:36.379Z,33.93
2019-04-16T18:40:13.789Z,33.07
2019-04-16T18:43:06.018Z,32.03
2019-04-16T18:45:58.820Z,33.77
2019-04-16T18:48:30.205Z,30.97
2019-04-16T18:51:00.507Z,32.93
2019-04-16T18:53:27.981Z,32.87
2019-04-16T18:55:57.110Z,35.20
2019-04-16T18:58:26.989Z,32.83
2019-04-16T19:00:58.846Z,32.90
2019-04-16T19:03:27.652Z,30.13
2019-04-16T19:05:56.490Z,38.17
2019-04-16T19:08:40.455Z,34.33
2019-04-16T19:10:54.488Z,31.80
2019-04-16T19:13:23.410Z,30.43
2019-04-16T19:15:52.389Z,37.83
2019-04-16T19:18:21.217Z,35.47
2019-04-16T19:20:51.785Z,31.73
2019-04-16T19:23:21.457Z,33.93
2019-04-16T19:25:47.774Z,33.23
2019-04-16T19:28:20.064Z,33.13
2019-04-16T19:30:45.626Z,35.67
2019-04-16T19:33:14.462Z,34.90
2019-04-16T19:35:43.319Z,38.23
2019-04-16T19:38:13.211Z,35.37
2019-04-16T19:40:42.071Z,43.50
2019-04-16T19:43:10.921Z,52.77
2019-04-16T19:45:40.692Z,55.87
2019-04-16T19:48:08.536Z,68.00
2019-04-16T19:50:38.793Z,53.90
2019-04-16T19:53:07.579Z,46.77
2019-04-16T19:55:36.487Z,48.23
2019-04-16T19:58:06.175Z,46.80
2019-04-16T20:00:35.048Z,37.37
2019-04-16T20:03:03.854Z,29.27
2019-04-16T20:05:34.336Z,23.50
2019-04-16T20:08:03.401Z,19.77
2019-04-16T20:10:32.183Z,19.07
2019-04-16T20:13:01.059Z,21.13
2019-04-16T20:15:30.040Z,17.13
2019-04-16T20:17:59.357Z,19.77
2019-04-16T20:20:28.074Z,17.50
2019-04-16T20:22:57.555Z,19.13
2019-04-16T20:25:26.419Z,25.50
2019-04-16T20:27:55.209Z,17.47
2019-04-16T20:30:24.460Z,20.53
2019-04-16T20:32:53.489Z,16.17
2019-04-16T20:35:21.751Z,17.20
2019-04-16T20:37:53.396Z,14.50
2019-04-16T20:40:19.432Z,20.07
2019-04-16T20:42:48.318Z,15.40
2019-04-16T20:45:17.108Z,34.83
2019-04-16T20:47:45.960Z,24.03
2019-04-16T20:50:14.813Z,16.20
2019-04-16T20:52:43.727Z,15.27
2019-04-16T20:55:16.051Z,11.80
2019-04-16T20:57:42.396Z,14.77
2019-04-16T21:00:11.764Z,13.83
2019-04-16T21:02:40.981Z,19.03
2019-04-16T21:05:21.843Z,14.37
2019-04-16T21:07:40.124Z,17.53
2019-04-16T21:10:08.944Z,12.33
2019-04-16T21:12:38.419Z,18.20
2019-04-16T21:15:07.280Z,14.00
2019-04-16T21:17:39.066Z,11.60
2019-04-16T21:20:06.375Z,14.10
2019-04-16T21:22:35.526Z,14.00
2019-04-16T21:25:04.347Z,15.93
2019-04-16T21:27:33.620Z,14.93
2019-04-16T21:30:10.941Z,15.93
2019-04-16T21:32:45.597Z,14.60
2019-04-16T21:35:18.016Z,15.97
2019-04-16T21:37:56.991Z,14.37
2019-04-16T21:40:25.760Z,18.80
2019-04-16T21:42:55.191Z,16.53
2019-04-16T21:45:23.505Z,16.77
2019-04-16T21:47:54.796Z,13.97
2019-04-16T21:50:21.117Z,15.77
2019-04-16T21:52:55.042Z,15.70
2019-04-16T21:55:18.745Z,17.37
2019-04-16T21:57:48.107Z,24.30
2019-04-16T22:00:22.108Z,18.10
2019-04-16T22:02:51.981Z,15.33
2019-04-16T22:05:21.976Z,17.00
2019-04-16T22:07:53.666Z,15.73
2019-04-16T22:10:22.223Z,16.83
2019-04-16T22:12:51.766Z,21.53
2019-04-16T22:15:25.199Z,23.77
2019-04-16T22:17:49.434Z,22.37
2019-04-16T22:20:19.245Z,23.57
2019-04-16T22:22:48.191Z,20.73
2019-04-16T22:25:17.077Z,23.40
2019-04-16T22:27:46.766Z,21.57
2019-04-16T22:30:19.151Z,17.90
2019-04-16T22:32:44.481Z,21.13
2019-04-16T22:35:13.474Z,17.33
2019-04-16T22:37:42.862Z,26.77
2019-04-16T22:40:22.556Z,18.37
2019-04-16T22:42:52.254Z,21.63
2019-04-16T22:45:27.548Z,19.70
2019-04-16T22:47:56.800Z,27.70
2019-04-16T22:50:25.759Z,18.97
2019-04-16T22:52:54.544Z,25.50
2019-04-16T22:55:24.939Z,24.27
2019-04-16T22:57:52.190Z,21.17
2019-04-16T23:00:26.009Z,26.10
2019-04-16T23:02:54.840Z,23.27
2019-04-16T23:05:23.772Z,20.83
2019-04-16T23:07:52.568Z,27.63
2019-04-16T23:10:22.095Z,22.73
2019-04-16T23:12:52.167Z,23.53
2019-04-16T23:15:21.383Z,20.27
2019-04-16T23:17:50.213Z,18.57
2019-04-16T23:20:29.093Z,26.07
2019-04-16T23:22:49.751Z,19.30
2019-04-16T23:25:19.840Z,20.27
2019-04-16T23:27:48.671Z,22.93
2019-04-16T23:30:18.484Z,19.00
2019-04-16T23:32:46.490Z,18.00
2019-04-16T23:35:15.330Z,19.13
2019-04-16T23:37:44.133Z,19.10
2019-04-16T23:40:13.183Z,14.87
2019-04-16T23:42:47.461Z,16.30
2019-04-16T23:45:25.271Z,20.40
2019-04-16T23:48:58.628Z,19.93
2019-04-16T23:51:38.529Z,22.00
2019-04-16T23:54:15.800Z,24.03
2019-04-16T23:56:53.087Z,27.10
2019-04-16T23:59:27.672Z,21.03
